sensor_id;sensor_type;location;lat;lon;timestamp;pressure;altitude;pressure_sealevel;temperature;humidity
50632;BME280;49583;45.590;-122.498;2024-03-23T00:55:34;100274.66;;;15.14;63.19
50632;BME280;49583;45.590;-122.498;2024-03-23T00:57:46;100278.54;;;15.09;63.40
50632;BME280;49583;45.590;-122.498;2024-03-23T00:59:57;100279.90;;;15.02;63.54
50632;BME280;49583;45.590;-122.498;2024-03-23T01:02:10;100274.40;;;14.95;64.02
50632;BME280;49583;45.590;-122.498;2024-03-23T01:04:22;100255.75;;;14.90;64.40
50632;BME280;49583;45.590;-122.498;2024-03-23T01:06:35;100237.19;;;14.85;64.91
50632;BME280;49583;45.590;-122.498;2024-03-23T01:08:48;100227.83;;;14.80;65.27
50632;BME280;49583;45.590;-122.498;2024-03-23T01:11:01;100229.96;;;14.73;65.65
50632;BME280;49583;45.590;-122.498;2024-03-23T01:13:14;100231.95;;;14.65;65.92
50632;BME280;49583;45.590;-122.498;2024-03-23T01:15:30;100227.79;;;14.58;66.31
50632;BME280;49583;45.590;-122.498;2024-03-23T01:17:43;100229.15;;;14.54;66.74
50632;BME280;49583;45.590;-122.498;2024-03-23T01:19:55;100228.67;;;14.50;67.05
50632;BME280;49583;45.590;-122.498;2024-03-23T01:22:08;100224.30;;;14.46;67.36
50632;BME280;49583;45.590;-122.498;2024-03-23T01:24:21;100220.27;;;14.43;67.65
50632;BME280;49583;45.590;-122.498;2024-03-23T01:26:33;100219.39;;;14.41;67.73
50632;BME280;49583;45.590;-122.498;2024-03-23T01:28:45;100215.72;;;14.38;68.01
50632;BME280;49583;45.590;-122.498;2024-03-23T01:30:58;100216.80;;;14.37;68.20
50632;BME280;49583;45.590;-122.498;2024-03-23T01:33:10;100217.80;;;14.35;68.45
50632;BME280;49583;45.590;-122.498;2024-03-23T01:35:23;100216.55;;;14.35;68.62
50632;BME280;49583;45.590;-122.498;2024-03-23T01:37:35;100214.27;;;14.32;68.85
50632;BME280;49583;45.590;-122.498;2024-03-23T01:39:48;100214.84;;;14.31;68.87
50632;BME280;49583;45.590;-122.498;2024-03-23T01:42:00;100214.59;;;14.29;69.03
50632;BME280;49583;45.590;-122.498;2024-03-23T01:44:10;100211.98;;;14.25;69.03
50632;BME280;49583;45.590;-122.498;2024-03-23T01:46:22;100213.83;;;14.24;69.25
50632;BME280;49583;45.590;-122.498;2024-03-23T01:48:34;100209.41;;;14.21;69.45
50632;BME280;49583;45.590;-122.498;2024-03-23T01:50:47;100205.86;;;14.18;69.52
50632;BME280;49583;45.590;-122.498;2024-03-23T01:52:59;100204.46;;;14.15;69.70
50632;BME280;49583;45.590;-122.498;2024-03-23T01:55:13;100203.83;;;14.13;69.81
50632;BME280;49583;45.590;-122.498;2024-03-23T01:57:25;100210.58;;;14.11;70.05
50632;BME280;49583;45.590;-122.498;2024-03-23T01:59:38;100214.29;;;14.09;70.11
50632;BME280;49583;45.590;-122.498;2024-03-23T02:01:52;100211.23;;;14.07;70.19
50632;BME280;49583;45.590;-122.498;2024-03-23T02:04:04;100206.74;;;14.05;70.43
50632;BME280;49583;45.590;-122.498;2024-03-23T02:06:17;100201.94;;;14.02;70.40
50632;BME280;49583;45.590;-122.498;2024-03-23T02:08:29;100196.05;;;14.01;70.52
50632;BME280;49583;45.590;-122.498;2024-03-23T02:10:42;100192.67;;;14.00;70.67
50632;BME280;49583;45.590;-122.498;2024-03-23T02:12:54;100182.45;;;13.98;70.72
50632;BME280;49583;45.590;-122.498;2024-03-23T02:15:03;100176.70;;;13.96;70.89
50632;BME280;49583;45.590;-122.498;2024-03-23T02:17:15;100181.02;;;13.95;71.00
50632;BME280;49583;45.590;-122.498;2024-03-23T02:19:28;100180.09;;;13.92;71.15
50632;BME280;49583;45.590;-122.498;2024-03-23T02:21:40;100173.48;;;13.90;71.25
50632;BME280;49583;45.590;-122.498;2024-03-23T02:23:53;100168.91;;;13.87;71.25
50632;BME280;49583;45.590;-122.498;2024-03-23T02:26:05;100165.77;;;13.81;71.40
50632;BME280;49583;45.590;-122.498;2024-03-23T02:28:18;100161.13;;;13.80;71.50
50632;BME280;49583;45.590;-122.498;2024-03-23T02:30:30;100161.54;;;13.77;71.63
50632;BME280;49583;45.590;-122.498;2024-03-23T02:32:42;100156.80;;;13.74;71.83
50632;BME280;49583;45.590;-122.498;2024-03-23T02:34:55;100160.98;;;13.70;71.96
50632;BME280;49583;45.590;-122.498;2024-03-23T02:37:12;100160.75;;;13.69;72.04
50632;BME280;49583;45.590;-122.498;2024-03-23T02:39:25;100157.89;;;13.64;72.04
50632;BME280;49583;45.590;-122.498;2024-03-23T02:41:39;100152.17;;;13.61;72.21
50632;BME280;49583;45.590;-122.498;2024-03-23T02:43:51;100147.52;;;13.59;72.35
50632;BME280;49583;45.590;-122.498;2024-03-23T02:46:04;100142.64;;;13.57;72.44
50632;BME280;49583;45.590;-122.498;2024-03-23T02:48:18;100137.23;;;13.55;72.56
50632;BME280;49583;45.590;-122.498;2024-03-23T02:50:30;100133.39;;;13.54;72.78
50632;BME280;49583;45.590;-122.498;2024-03-23T02:52:43;100131.88;;;13.52;72.88
50632;BME280;49583;45.590;-122.498;2024-03-23T02:54:56;100125.75;;;13.52;73.07
50632;BME280;49583;45.590;-122.498;2024-03-23T02:57:08;100123.16;;;13.52;73.23
50632;BME280;49583;45.590;-122.498;2024-03-23T02:59:20;100120.56;;;13.51;73.23
50632;BME280;49583;45.590;-122.498;2024-03-23T03:01:32;100120.80;;;13.49;73.31
50632;BME280;49583;45.590;-122.498;2024-03-23T03:03:44;100117.96;;;13.48;73.47
50632;BME280;49583;45.590;-122.498;2024-03-23T03:05:59;100115.14;;;13.46;73.43
50632;BME280;49583;45.590;-122.498;2024-03-23T03:08:12;100111.21;;;13.44;73.54
50632;BME280;49583;45.590;-122.498;2024-03-23T03:10:24;100096.59;;;13.42;73.61
50632;BME280;49583;45.590;-122.498;2024-03-23T03:12:36;100092.11;;;13.37;73.57
50632;BME280;49583;45.590;-122.498;2024-03-23T03:14:49;100088.44;;;13.39;73.59
50632;BME280;49583;45.590;-122.498;2024-03-23T03:17:01;100087.86;;;13.35;73.60
50632;BME280;49583;45.590;-122.498;2024-03-23T03:19:14;100089.67;;;13.34;73.65
50632;BME280;49583;45.590;-122.498;2024-03-23T03:21:27;100081.52;;;13.29;73.75
50632;BME280;49583;45.590;-122.498;2024-03-23T03:23:36;100079.53;;;13.28;73.77
50632;BME280;49583;45.590;-122.498;2024-03-23T03:25:49;100076.54;;;13.25;73.70
50632;BME280;49583;45.590;-122.498;2024-03-23T03:28:01;100073.96;;;13.22;73.64
50632;BME280;49583;45.590;-122.498;2024-03-23T03:30:15;100077.32;;;13.19;73.65
50632;BME280;49583;45.590;-122.498;2024-03-23T03:32:28;100076.53;;;13.17;73.64
50632;BME280;49583;45.590;-122.498;2024-03-23T03:34:41;100075.52;;;13.13;73.55
50632;BME280;49583;45.590;-122.498;2024-03-23T03:36:54;100073.60;;;13.12;73.68
50632;BME280;49583;45.590;-122.498;2024-03-23T03:39:03;100068.71;;;13.07;73.65
50632;BME280;49583;45.590;-122.498;2024-03-23T03:41:16;100071.09;;;13.08;73.85
50632;BME280;49583;45.590;-122.498;2024-03-23T03:43:29;100071.24;;;13.05;74.06
50632;BME280;49583;45.590;-122.498;2024-03-23T03:45:42;100072.56;;;13.04;73.85
50632;BME280;49583;45.590;-122.498;2024-03-23T03:47:54;100073.42;;;13.02;74.13
50632;BME280;49583;45.590;-122.498;2024-03-23T03:50:07;100079.86;;;12.98;74.10
50632;BME280;49583;45.590;-122.498;2024-03-23T03:52:19;100076.69;;;12.89;74.00
50632;BME280;49583;45.590;-122.498;2024-03-23T03:54:32;100076.36;;;12.82;73.97
50632;BME280;49583;45.590;-122.498;2024-03-23T03:56:44;100068.17;;;12.79;74.24
50632;BME280;49583;45.590;-122.498;2024-03-23T03:58:56;100069.14;;;12.77;74.32
50632;BME280;49583;45.590;-122.498;2024-03-23T04:01:06;100076.98;;;12.75;74.49
50632;BME280;49583;45.590;-122.498;2024-03-23T04:03:18;100083.33;;;12.71;74.42
50632;BME280;49583;45.590;-122.498;2024-03-23T04:05:30;100086.69;;;12.70;74.57
50632;BME280;49583;45.590;-122.498;2024-03-23T04:07:44;100077.27;;;12.66;74.53
50632;BME280;49583;45.590;-122.498;2024-03-23T04:09:57;100072.85;;;12.62;74.64
50632;BME280;49583;45.590;-122.498;2024-03-23T04:12:10;100066.89;;;12.61;74.76
50632;BME280;49583;45.590;-122.498;2024-03-23T04:14:23;100047.42;;;12.60;74.98
50632;BME280;49583;45.590;-122.498;2024-03-23T04:16:36;100023.00;;;12.57;75.01
50632;BME280;49583;45.590;-122.498;2024-03-23T04:18:48;100022.45;;;12.55;75.13
50632;BME280;49583;45.590;-122.498;2024-03-23T04:21:01;100031.00;;;12.53;75.24
50632;BME280;49583;45.590;-122.498;2024-03-23T04:23:10;100039.63;;;12.52;75.19
50632;BME280;49583;45.590;-122.498;2024-03-23T04:25:22;100047.38;;;12.49;75.36
50632;BME280;49583;45.590;-122.498;2024-03-23T04:27:35;100037.71;;;12.47;75.27
50632;BME280;49583;45.590;-122.498;2024-03-23T04:29:49;100030.35;;;12.45;75.39
50632;BME280;49583;45.590;-122.498;2024-03-23T04:32:01;100030.25;;;12.42;75.58
50632;BME280;49583;45.590;-122.498;2024-03-23T04:34:14;100030.16;;;12.40;75.49
50632;BME280;49583;45.590;-122.498;2024-03-23T04:36:27;100032.14;;;12.38;75.55
50632;BME280;49583;45.590;-122.498;2024-03-23T04:38:36;100031.17;;;12.36;75.60
50632;BME280;49583;45.590;-122.498;2024-03-23T04:40:56;100030.60;;;12.32;75.54
50632;BME280;49583;45.590;-122.498;2024-03-23T04:43:08;100026.27;;;12.25;75.50
50632;BME280;49583;45.590;-122.498;2024-03-23T04:45:20;100019.66;;;12.20;75.49
50632;BME280;49583;45.590;-122.498;2024-03-23T04:47:33;100022.70;;;12.17;75.47
50632;BME280;49583;45.590;-122.498;2024-03-23T04:49:47;100019.80;;;12.14;75.66
50632;BME280;49583;45.590;-122.498;2024-03-23T04:51:59;100021.10;;;12.10;75.71
50632;BME280;49583;45.590;-122.498;2024-03-23T04:54:11;100016.80;;;12.08;75.82
50632;BME280;49583;45.590;-122.498;2024-03-23T04:56:21;100009.95;;;12.05;75.87
50632;BME280;49583;45.590;-122.498;2024-03-23T04:58:35;100008.20;;;12.01;76.02
50632;BME280;49583;45.590;-122.498;2024-03-23T05:00:47;100004.73;;;11.96;76.05
50632;BME280;49583;45.590;-122.498;2024-03-23T05:03:00;100003.84;;;11.93;76.29
50632;BME280;49583;45.590;-122.498;2024-03-23T05:05:09;100000.86;;;11.90;76.29
50632;BME280;49583;45.590;-122.498;2024-03-23T05:07:22;99996.91;;;11.86;76.37
50632;BME280;49583;45.590;-122.498;2024-03-23T05:09:35;99993.70;;;11.82;76.58
50632;BME280;49583;45.590;-122.498;2024-03-23T05:11:44;99990.55;;;11.81;76.57
50632;BME280;49583;45.590;-122.498;2024-03-23T05:13:56;99985.67;;;11.78;76.78
50632;BME280;49583;45.590;-122.498;2024-03-23T05:16:09;99980.08;;;11.74;76.52
50632;BME280;49583;45.590;-122.498;2024-03-23T05:18:21;99978.23;;;11.71;76.53
50632;BME280;49583;45.590;-122.498;2024-03-23T05:20:36;99981.50;;;11.67;76.66
50632;BME280;49583;45.590;-122.498;2024-03-23T05:22:49;99982.67;;;11.66;76.60
50632;BME280;49583;45.590;-122.498;2024-03-23T05:25:01;99982.17;;;11.63;76.73
50632;BME280;49583;45.590;-122.498;2024-03-23T05:27:15;99978.89;;;11.61;76.90
50632;BME280;49583;45.590;-122.498;2024-03-23T05:29:27;99976.14;;;11.60;76.92
50632;BME280;49583;45.590;-122.498;2024-03-23T05:31:36;99972.52;;;11.57;76.90
50632;BME280;49583;45.590;-122.498;2024-03-23T05:33:49;99975.64;;;11.57;76.82
50632;BME280;49583;45.590;-122.498;2024-03-23T05:36:03;99972.57;;;11.55;76.82
50632;BME280;49583;45.590;-122.498;2024-03-23T05:38:16;99968.64;;;11.54;76.98
50632;BME280;49583;45.590;-122.498;2024-03-23T05:40:28;99965.21;;;11.53;77.68
50632;BME280;49583;45.590;-122.498;2024-03-23T05:42:41;99966.00;;;11.53;77.37
50632;BME280;49583;45.590;-122.498;2024-03-23T05:44:54;99961.98;;;11.50;77.53
50632;BME280;49583;45.590;-122.498;2024-03-23T05:47:08;99961.91;;;11.51;77.33
50632;BME280;49583;45.590;-122.498;2024-03-23T05:49:20;99965.34;;;11.50;77.70
50632;BME280;49583;45.590;-122.498;2024-03-23T05:51:32;99969.02;;;11.49;77.49
50632;BME280;49583;45.590;-122.498;2024-03-23T05:53:45;99970.33;;;11.47;77.46
50632;BME280;49583;45.590;-122.498;2024-03-23T05:56:03;99964.68;;;11.46;77.58
50632;BME280;49583;45.590;-122.498;2024-03-23T05:58:17;99957.16;;;11.43;77.43
50632;BME280;49583;45.590;-122.498;2024-03-23T06:00:29;99956.91;;;11.42;77.49
50632;BME280;49583;45.590;-122.498;2024-03-23T06:02:41;99946.94;;;11.39;77.37
50632;BME280;49583;45.590;-122.498;2024-03-23T06:04:55;99945.20;;;11.36;77.65
50632;BME280;49583;45.590;-122.498;2024-03-23T06:07:07;99942.85;;;11.35;77.56
50632;BME280;49583;45.590;-122.498;2024-03-23T06:09:23;99951.05;;;11.33;77.48
50632;BME280;49583;45.590;-122.498;2024-03-23T06:11:35;99954.95;;;11.31;77.73
50632;BME280;49583;45.590;-122.498;2024-03-23T06:13:48;99963.56;;;11.30;77.87
50632;BME280;49583;45.590;-122.498;2024-03-23T06:16:02;99987.42;;;11.26;77.72
50632;BME280;49583;45.590;-122.498;2024-03-23T06:18:16;100022.06;;;11.20;77.99
50632;BME280;49583;45.590;-122.498;2024-03-23T06:20:28;100009.40;;;11.15;77.82
50632;BME280;49583;45.590;-122.498;2024-03-23T06:22:41;100001.22;;;11.09;77.87
50632;BME280;49583;45.590;-122.498;2024-03-23T06:24:53;99985.23;;;11.08;78.11
50632;BME280;49583;45.590;-122.498;2024-03-23T06:27:07;99961.60;;;11.09;78.65
50632;BME280;49583;45.590;-122.498;2024-03-23T06:29:19;99949.54;;;11.07;78.85
50632;BME280;49583;45.590;-122.498;2024-03-23T06:31:31;99947.67;;;11.10;78.96
50632;BME280;49583;45.590;-122.498;2024-03-23T06:33:43;99949.31;;;11.09;78.98
50632;BME280;49583;45.590;-122.498;2024-03-23T06:35:56;99944.22;;;11.09;78.81
50632;BME280;49583;45.590;-122.498;2024-03-23T06:38:09;99930.29;;;11.08;79.10
50632;BME280;49583;45.590;-122.498;2024-03-23T06:40:21;99926.36;;;11.09;79.42
50632;BME280;49583;45.590;-122.498;2024-03-23T06:42:30;99916.27;;;11.07;79.36
50632;BME280;49583;45.590;-122.498;2024-03-23T06:44:43;99917.67;;;11.05;79.27
50632;BME280;49583;45.590;-122.498;2024-03-23T06:46:59;99924.07;;;11.03;79.06
50632;BME280;49583;45.590;-122.498;2024-03-23T06:49:13;99925.92;;;11.01;79.28
50632;BME280;49583;45.590;-122.498;2024-03-23T06:51:29;99925.23;;;11.02;79.37
50632;BME280;49583;45.590;-122.498;2024-03-23T06:53:41;99918.97;;;11.02;79.33
50632;BME280;49583;45.590;-122.498;2024-03-23T06:55:55;99917.09;;;11.02;79.50
50632;BME280;49583;45.590;-122.498;2024-03-23T06:58:07;99915.67;;;11.01;79.36
50632;BME280;49583;45.590;-122.498;2024-03-23T07:00:20;99915.77;;;11.03;79.52
50632;BME280;49583;45.590;-122.498;2024-03-23T07:02:32;99919.14;;;11.03;79.45
50632;BME280;49583;45.590;-122.498;2024-03-23T07:04:44;99917.95;;;11.02;79.48
50632;BME280;49583;45.590;-122.498;2024-03-23T07:06:57;99918.20;;;11.03;79.43
50632;BME280;49583;45.590;-122.498;2024-03-23T07:09:09;99915.54;;;11.03;79.55
50632;BME280;49583;45.590;-122.498;2024-03-23T07:11:23;99923.60;;;11.04;79.56
50632;BME280;49583;45.590;-122.498;2024-03-23T07:13:35;99926.66;;;11.04;79.77
50632;BME280;49583;45.590;-122.498;2024-03-23T07:15:53;99923.46;;;11.04;79.94
50632;BME280;49583;45.590;-122.498;2024-03-23T07:18:05;99915.23;;;11.04;79.71
50632;BME280;49583;45.590;-122.498;2024-03-23T07:20:18;99909.11;;;11.02;79.64
50632;BME280;49583;45.590;-122.498;2024-03-23T07:22:31;99907.76;;;11.00;79.81
50632;BME280;49583;45.590;-122.498;2024-03-23T07:24:43;99901.73;;;10.98;79.59
50632;BME280;49583;45.590;-122.498;2024-03-23T07:26:56;99893.98;;;10.97;79.63
50632;BME280;49583;45.590;-122.498;2024-03-23T07:29:09;99889.17;;;10.95;79.64
50632;BME280;49583;45.590;-122.498;2024-03-23T07:31:21;99885.40;;;10.94;79.79
50632;BME280;49583;45.590;-122.498;2024-03-23T07:33:35;99889.22;;;10.92;79.93
50632;BME280;49583;45.590;-122.498;2024-03-23T07:35:49;99890.95;;;10.90;79.88
50632;BME280;49583;45.590;-122.498;2024-03-23T07:38:01;99879.13;;;10.90;80.06
50632;BME280;49583;45.590;-122.498;2024-03-23T07:40:17;99871.05;;;10.88;80.05
50632;BME280;49583;45.590;-122.498;2024-03-23T07:42:29;99879.72;;;10.86;79.99
50632;BME280;49583;45.590;-122.498;2024-03-23T07:44:41;99881.97;;;10.85;80.11
50632;BME280;49583;45.590;-122.498;2024-03-23T07:46:53;99885.11;;;10.85;80.09
50632;BME280;49583;45.590;-122.498;2024-03-23T07:49:03;99893.08;;;10.84;80.13
50632;BME280;49583;45.590;-122.498;2024-03-23T07:51:18;99887.86;;;10.83;80.25
50632;BME280;49583;45.590;-122.498;2024-03-23T07:53:30;99884.86;;;10.82;80.43
50632;BME280;49583;45.590;-122.498;2024-03-23T07:55:55;99885.02;;;10.81;80.47
50632;BME280;49583;45.590;-122.498;2024-03-23T07:58:07;99882.98;;;10.82;80.45
50632;BME280;49583;45.590;-122.498;2024-03-23T08:00:20;99880.39;;;10.81;80.40
50632;BME280;49583;45.590;-122.498;2024-03-23T08:02:33;99878.27;;;10.80;80.60
50632;BME280;49583;45.590;-122.498;2024-03-23T08:04:42;99874.75;;;10.80;80.66
50632;BME280;49583;45.590;-122.498;2024-03-23T08:06:54;99873.88;;;10.80;80.69
50632;BME280;49583;45.590;-122.498;2024-03-23T08:09:07;99875.98;;;10.79;80.73
50632;BME280;49583;45.590;-122.498;2024-03-23T08:11:20;99880.67;;;10.77;80.66
50632;BME280;49583;45.590;-122.498;2024-03-23T08:13:33;99885.36;;;10.76;80.61
50632;BME280;49583;45.590;-122.498;2024-03-23T08:15:45;99889.44;;;10.75;80.71
50632;BME280;49583;45.590;-122.498;2024-03-23T08:17:57;99890.44;;;10.74;80.69
50632;BME280;49583;45.590;-122.498;2024-03-23T08:20:13;99892.37;;;10.71;80.63
50632;BME280;49583;45.590;-122.498;2024-03-23T08:22:26;99891.72;;;10.69;80.83
50632;BME280;49583;45.590;-122.498;2024-03-23T08:24:39;99891.09;;;10.69;80.82
50632;BME280;49583;45.590;-122.498;2024-03-23T08:26:51;99891.16;;;10.69;80.79
50632;BME280;49583;45.590;-122.498;2024-03-23T08:29:04;99883.88;;;10.67;80.91
50632;BME280;49583;45.590;-122.498;2024-03-23T08:31:16;99889.53;;;10.67;80.82
50632;BME280;49583;45.590;-122.498;2024-03-23T08:33:29;99887.71;;;10.67;81.05
50632;BME280;49583;45.590;-122.498;2024-03-23T08:35:43;99887.40;;;10.66;80.99
50632;BME280;49583;45.590;-122.498;2024-03-23T08:38:04;99890.77;;;10.67;81.13
50632;BME280;49583;45.590;-122.498;2024-03-23T08:40:16;99884.35;;;10.66;81.29
50632;BME280;49583;45.590;-122.498;2024-03-23T08:42:29;99876.91;;;10.66;81.28
50632;BME280;49583;45.590;-122.498;2024-03-23T08:44:41;99874.56;;;10.66;81.12
50632;BME280;49583;45.590;-122.498;2024-03-23T08:46:58;99867.61;;;10.66;81.48
50632;BME280;49583;45.590;-122.498;2024-03-23T08:49:11;99868.87;;;10.67;81.35
50632;BME280;49583;45.590;-122.498;2024-03-23T08:51:23;99867.47;;;10.68;81.61
50632;BME280;49583;45.590;-122.498;2024-03-23T08:53:37;99861.84;;;10.68;81.67
50632;BME280;49583;45.590;-122.498;2024-03-23T08:55:57;99856.36;;;10.68;81.74
50632;BME280;49583;45.590;-122.498;2024-03-23T08:58:10;99856.05;;;10.68;81.76
50632;BME280;49583;45.590;-122.498;2024-03-23T09:00:23;99857.53;;;10.68;81.79
50632;BME280;49583;45.590;-122.498;2024-03-23T09:02:35;99856.81;;;10.69;81.82
50632;BME280;49583;45.590;-122.498;2024-03-23T09:04:46;99851.58;;;10.69;81.61
50632;BME280;49583;45.590;-122.498;2024-03-23T09:06:58;99850.17;;;10.68;81.63
50632;BME280;49583;45.590;-122.498;2024-03-23T09:09:10;99844.53;;;10.67;81.65
50632;BME280;49583;45.590;-122.498;2024-03-23T09:11:22;99841.70;;;10.65;81.60
50632;BME280;49583;45.590;-122.498;2024-03-23T09:13:35;99846.30;;;10.63;81.66
50632;BME280;49583;45.590;-122.498;2024-03-23T09:15:50;99842.99;;;10.62;81.84
50632;BME280;49583;45.590;-122.498;2024-03-23T09:18:07;99843.38;;;10.61;82.03
50632;BME280;49583;45.590;-122.498;2024-03-23T09:20:19;99835.00;;;10.61;81.90
50632;BME280;49583;45.590;-122.498;2024-03-23T09:22:31;99833.21;;;10.61;82.06
50632;BME280;49583;45.590;-122.498;2024-03-23T09:24:43;99830.47;;;10.61;81.99
50632;BME280;49583;45.590;-122.498;2024-03-23T09:26:56;99827.83;;;10.60;81.98
50632;BME280;49583;45.590;-122.498;2024-03-23T09:29:08;99826.72;;;10.60;81.97
50632;BME280;49583;45.590;-122.498;2024-03-23T09:31:20;99824.61;;;10.60;81.75
50632;BME280;49583;45.590;-122.498;2024-03-23T09:33:33;99818.27;;;10.60;81.69
50632;BME280;49583;45.590;-122.498;2024-03-23T09:35:46;99816.33;;;10.60;81.75
50632;BME280;49583;45.590;-122.498;2024-03-23T09:37:58;99812.79;;;10.61;81.73
50632;BME280;49583;45.590;-122.498;2024-03-23T09:40:12;99807.72;;;10.62;81.45
50632;BME280;49583;45.590;-122.498;2024-03-23T09:42:23;99806.09;;;10.63;81.33
50632;BME280;49583;45.590;-122.498;2024-03-23T09:44:37;99804.47;;;10.66;81.03
50632;BME280;49583;45.590;-122.498;2024-03-23T09:46:49;99802.38;;;10.68;80.75
50632;BME280;49583;45.590;-122.498;2024-03-23T09:49:03;99793.23;;;10.71;80.67
50632;BME280;49583;45.590;-122.498;2024-03-23T09:51:15;99799.29;;;10.74;80.41
50632;BME280;49583;45.590;-122.498;2024-03-23T09:53:27;99805.55;;;10.76;80.14
50632;BME280;49583;45.590;-122.498;2024-03-23T09:55:40;99799.77;;;10.76;80.37
50632;BME280;49583;45.590;-122.498;2024-03-23T09:57:52;99791.65;;;10.80;80.38
50632;BME280;49583;45.590;-122.498;2024-03-23T10:00:06;99791.27;;;10.79;80.17
50632;BME280;49583;45.590;-122.498;2024-03-23T10:02:20;99787.96;;;10.78;80.11
50632;BME280;49583;45.590;-122.498;2024-03-23T10:04:43;99782.41;;;10.78;80.09
50632;BME280;49583;45.590;-122.498;2024-03-23T10:06:53;99780.67;;;10.77;79.85
50632;BME280;49583;45.590;-122.498;2024-03-23T10:09:18;99776.68;;;10.74;79.51
50632;BME280;49583;45.590;-122.498;2024-03-23T10:11:31;99778.86;;;10.73;79.51
50632;BME280;49583;45.590;-122.498;2024-03-23T10:13:44;99773.59;;;10.71;79.51
50632;BME280;49583;45.590;-122.498;2024-03-23T10:16:00;99767.55;;;10.69;79.42
50632;BME280;49583;45.590;-122.498;2024-03-23T10:18:20;99760.84;;;10.67;79.26
50632;BME280;49583;45.590;-122.498;2024-03-23T10:20:33;99757.05;;;10.65;79.08
50632;BME280;49583;45.590;-122.498;2024-03-23T10:22:46;99755.40;;;10.63;78.87
50632;BME280;49583;45.590;-122.498;2024-03-23T10:25:09;99751.79;;;10.62;78.77
50632;BME280;49583;45.590;-122.498;2024-03-23T10:27:22;99742.95;;;10.60;77.74
50632;BME280;49583;45.590;-122.498;2024-03-23T10:29:37;99736.85;;;10.60;77.31
50632;BME280;49583;45.590;-122.498;2024-03-23T10:31:46;99728.17;;;10.60;77.20
50632;BME280;49583;45.590;-122.498;2024-03-23T10:34:00;99720.26;;;10.58;76.72
50632;BME280;49583;45.590;-122.498;2024-03-23T10:36:12;99721.29;;;10.60;77.05
50632;BME280;49583;45.590;-122.498;2024-03-23T10:38:24;99718.63;;;10.60;76.63
50632;BME280;49583;45.590;-122.498;2024-03-23T10:40:38;99719.02;;;10.59;76.39
50632;BME280;49583;45.590;-122.498;2024-03-23T10:42:52;99721.20;;;10.59;76.13
50632;BME280;49583;45.590;-122.498;2024-03-23T10:45:06;99720.80;;;10.58;75.68
50632;BME280;49583;45.590;-122.498;2024-03-23T10:47:21;99718.60;;;10.56;75.45
50632;BME280;49583;45.590;-122.498;2024-03-23T10:49:37;99718.36;;;10.56;75.26
50632;BME280;49583;45.590;-122.498;2024-03-23T10:51:53;99717.33;;;10.55;74.98
50632;BME280;49583;45.590;-122.498;2024-03-23T10:54:07;99717.56;;;10.54;74.53
50632;BME280;49583;45.590;-122.498;2024-03-23T10:56:26;99713.42;;;10.53;74.35
50632;BME280;49583;45.590;-122.498;2024-03-23T10:58:47;99707.54;;;10.51;74.01
50632;BME280;49583;45.590;-122.498;2024-03-23T11:01:20;99713.02;;;10.50;73.71
50632;BME280;49583;45.590;-122.498;2024-03-23T11:03:36;99709.02;;;10.48;73.45
50632;BME280;49583;45.590;-122.498;2024-03-23T11:05:52;99702.44;;;10.48;73.43
50632;BME280;49583;45.590;-122.498;2024-03-23T11:08:12;99703.83;;;10.46;73.25
50632;BME280;49583;45.590;-122.498;2024-03-23T11:10:41;99701.71;;;10.44;72.94
50632;BME280;49583;45.590;-122.498;2024-03-23T11:13:23;99696.77;;;10.40;72.56
50632;BME280;49583;45.590;-122.498;2024-03-23T11:15:35;99695.66;;;10.40;72.46
50632;BME280;49583;45.590;-122.498;2024-03-23T11:20:35;99689.17;;;10.41;72.09
50632;BME280;49583;45.590;-122.498;2024-03-23T11:22:58;99689.16;;;10.38;71.82
50632;BME280;49583;45.590;-122.498;2024-03-23T11:25:22;99686.90;;;10.36;71.69
50632;BME280;49583;45.590;-122.498;2024-03-23T11:27:35;99680.45;;;10.31;71.57
50632;BME280;49583;45.590;-122.498;2024-03-23T11:30:19;99680.60;;;10.32;71.79
50632;BME280;49583;45.590;-122.498;2024-03-23T11:32:52;99676.83;;;10.28;71.53
50632;BME280;49583;45.590;-122.498;2024-03-23T11:35:06;99676.23;;;10.23;71.66
50632;BME280;49583;45.590;-122.498;2024-03-23T11:37:23;99675.67;;;10.19;71.69
50632;BME280;49583;45.590;-122.498;2024-03-23T11:39:38;99670.37;;;10.15;71.89
50632;BME280;49583;45.590;-122.498;2024-03-23T11:41:52;99670.52;;;10.12;71.58
50632;BME280;49583;45.590;-122.498;2024-03-23T11:44:19;99670.15;;;10.07;71.65
50632;BME280;49583;45.590;-122.498;2024-03-23T11:46:36;99672.25;;;10.04;71.67
50632;BME280;49583;45.590;-122.498;2024-03-23T11:48:53;99670.03;;;10.00;71.83
50632;BME280;49583;45.590;-122.498;2024-03-23T11:51:06;99671.90;;;9.98;71.69
50632;BME280;49583;45.590;-122.498;2024-03-23T11:53:23;99665.30;;;9.95;72.02
50632;BME280;49583;45.590;-122.498;2024-03-23T11:55:45;99661.66;;;9.90;71.66
50632;BME280;49583;45.590;-122.498;2024-03-23T11:57:59;99664.49;;;9.91;71.90
50632;BME280;49583;45.590;-122.498;2024-03-23T12:00:24;99664.09;;;9.89;72.18
50632;BME280;49583;45.590;-122.498;2024-03-23T12:02:37;99660.85;;;9.85;71.87
50632;BME280;49583;45.590;-122.498;2024-03-23T12:04:50;99651.98;;;9.79;71.97
50632;BME280;49583;45.590;-122.498;2024-03-23T12:07:15;99658.29;;;9.78;72.03
50632;BME280;49583;45.590;-122.498;2024-03-23T12:09:29;99658.73;;;9.76;71.96
50632;BME280;49583;45.590;-122.498;2024-03-23T12:11:45;99655.06;;;9.74;71.99
50632;BME280;49583;45.590;-122.498;2024-03-23T12:14:01;99654.97;;;9.72;72.08